sensor_id;sensor_type;location;lat;lon;timestamp;noise_LAeq;noise_LA_min;noise_LA_max;noise_LA01;noise_LA95
72160;Laerm;60045;51.792;10.938;2023-04-24T00:00:02;49.77;30.47;68.61;;
72160;Laerm;60045;51.792;10.938;2023-04-24T00:02:30;31.43;30.08;33.44;;
72160;Laerm;60045;51.792;10.938;2023-04-24T00:04:56;31.54;30.24;36.07;;
72160;Laerm;60045;51.792;10.938;2023-04-24T00:07:27;31.69;30.36;39.13;;
72160;Laerm;60045;51.792;10.938;2023-04-24T00:09:54;32.72;30.59;41.63;;
72160;Laerm;60045;51.792;10.938;2023-04-24T00:12:20;51.84;30.63;71.36;;
72160;Laerm;60045;51.792;10.938;2023-04-24T00:14:48;33.82;30.51;44.75;;
72160;Laerm;60045;51.792;10.938;2023-04-24T00:17:14;54.37;30.16;70.99;;
72160;Laerm;60045;51.792;10.938;2023-04-24T00:19:40;31.66;29.71;35.26;;
72160;Laerm;60045;51.792;10.938;2023-04-24T00:22:07;31.41;30.06;34.52;;
72160;Laerm;60045;51.792;10.938;2023-04-24T00:24:33;31.45;30.23;32.91;;
72160;Laerm;60045;51.792;10.938;2023-04-24T00:26:59;31.47;29.72;46.06;;
72160;Laerm;60045;51.792;10.938;2023-04-24T00:29:25;31.95;30.44;38.81;;
72160;Laerm;60045;51.792;10.938;2023-04-24T00:31:54;31.51;30.22;35.39;;
72160;Laerm;60045;51.792;10.938;2023-04-24T00:34:20;31.45;30.01;33.25;;
72160;Laerm;60045;51.792;10.938;2023-04-24T00:36:47;31.46;30.24;32.82;;
72160;Laerm;60045;51.792;10.938;2023-04-24T00:39:15;31.47;30.21;33.62;;
72160;Laerm;60045;51.792;10.938;2023-04-24T00:41:41;31.52;30.16;39.65;;
72160;Laerm;60045;51.792;10.938;2023-04-24T00:44:07;31.55;30.32;33.12;;
72160;Laerm;60045;51.792;10.938;2023-04-24T00:46:34;31.48;30.03;35.36;;
72160;Laerm;60045;51.792;10.938;2023-04-24T00:49:01;31.50;30.29;35.15;;
72160;Laerm;60045;51.792;10.938;2023-04-24T00:51:28;31.47;29.76;35.28;;
72160;Laerm;60045;51.792;10.938;2023-04-24T00:53:55;31.54;30.14;34.15;;
72160;Laerm;60045;51.792;10.938;2023-04-24T00:56:22;31.55;30.29;37.37;;
72160;Laerm;60045;51.792;10.938;2023-04-24T00:58:48;31.62;30.31;34.35;;
72160;Laerm;60045;51.792;10.938;2023-04-24T01:01:15;31.59;30.32;33.08;;
72160;Laerm;60045;51.792;10.938;2023-04-24T01:03:41;31.46;30.09;38.95;;
72160;Laerm;60045;51.792;10.938;2023-04-24T01:06:09;31.39;30.08;32.66;;
72160;Laerm;60045;51.792;10.938;2023-04-24T01:08:36;31.44;29.92;33.33;;
72160;Laerm;60045;51.792;10.938;2023-04-24T01:11:03;32.87;30.29;40.58;;
72160;Laerm;60045;51.792;10.938;2023-04-24T01:13:29;61.37;30.15;80.08;;
72160;Laerm;60045;51.792;10.938;2023-04-24T01:15:57;32.57;30.02;39.31;;
72160;Laerm;60045;51.792;10.938;2023-04-24T01:18:23;31.20;30.03;34.76;;
72160;Laerm;60045;51.792;10.938;2023-04-24T01:20:49;31.36;29.97;33.21;;
72160;Laerm;60045;51.792;10.938;2023-04-24T01:23:18;31.38;29.70;40.48;;
72160;Laerm;60045;51.792;10.938;2023-04-24T01:25:44;31.70;30.23;35.06;;
72160;Laerm;60045;51.792;10.938;2023-04-24T01:28:11;48.72;29.91;65.51;;
72160;Laerm;60045;51.792;10.938;2023-04-24T01:30:39;31.51;29.96;33.39;;
72160;Laerm;60045;51.792;10.938;2023-04-24T01:33:05;31.38;30.08;34.24;;
72160;Laerm;60045;51.792;10.938;2023-04-24T01:35:31;31.48;30.01;37.92;;
72160;Laerm;60045;51.792;10.938;2023-04-24T01:37:58;31.71;29.88;34.48;;
72160;Laerm;60045;51.792;10.938;2023-04-24T01:40:26;53.60;30.36;71.71;;
72160;Laerm;60045;51.792;10.938;2023-04-24T01:42:52;31.43;30.01;33.84;;
72160;Laerm;60045;51.792;10.938;2023-04-24T01:45:18;31.91;30.45;39.04;;
72160;Laerm;60045;51.792;10.938;2023-04-24T01:47:45;31.69;30.21;34.38;;
72160;Laerm;60045;51.792;10.938;2023-04-24T01:50:11;31.91;30.41;34.97;;
72160;Laerm;60045;51.792;10.938;2023-04-24T01:52:37;32.46;30.73;34.66;;
72160;Laerm;60045;51.792;10.938;2023-04-24T01:55:04;32.84;30.98;35.67;;
72160;Laerm;60045;51.792;10.938;2023-04-24T01:57:33;33.98;31.70;43.61;;
72160;Laerm;60045;51.792;10.938;2023-04-24T01:59:59;34.64;32.49;41.00;;
72160;Laerm;60045;51.792;10.938;2023-04-24T02:02:26;48.29;33.35;65.26;;
72160;Laerm;60045;51.792;10.938;2023-04-24T02:04:53;35.76;33.49;43.03;;
72160;Laerm;60045;51.792;10.938;2023-04-24T02:07:19;60.70;32.96;79.20;;
72160;Laerm;60045;51.792;10.938;2023-04-24T02:09:46;42.52;34.60;53.33;;
72160;Laerm;60045;51.792;10.938;2023-04-24T02:12:12;37.25;33.23;46.80;;
72160;Laerm;60045;51.792;10.938;2023-04-24T02:14:40;36.95;33.57;59.15;;
72160;Laerm;60045;51.792;10.938;2023-04-24T02:17:07;54.21;34.19;74.92;;
72160;Laerm;60045;51.792;10.938;2023-04-24T02:19:33;51.88;34.14;70.82;;
72160;Laerm;60045;51.792;10.938;2023-04-24T02:22:00;53.93;34.00;73.84;;
72160;Laerm;60045;51.792;10.938;2023-04-24T02:24:26;37.07;33.52;45.62;;
72160;Laerm;60045;51.792;10.938;2023-04-24T02:26:52;35.85;33.64;39.79;;
72160;Laerm;60045;51.792;10.938;2023-04-24T02:29:18;35.31;32.69;38.80;;
72160;Laerm;60045;51.792;10.938;2023-04-24T02:31:46;39.57;34.90;48.56;;
72160;Laerm;60045;51.792;10.938;2023-04-24T02:34:12;64.85;35.98;78.90;;
72160;Laerm;60045;51.792;10.938;2023-04-24T02:36:38;55.47;34.79;75.58;;
72160;Laerm;60045;51.792;10.938;2023-04-24T02:39:05;52.56;34.66;69.48;;
72160;Laerm;60045;51.792;10.938;2023-04-24T02:41:31;58.00;35.11;73.97;;
72160;Laerm;60045;51.792;10.938;2023-04-24T02:43:57;58.48;34.60;76.09;;
72160;Laerm;60045;51.792;10.938;2023-04-24T02:46:24;41.79;35.12;56.32;;
72160;Laerm;60045;51.792;10.938;2023-04-24T02:48:51;58.95;35.97;76.08;;
72160;Laerm;60045;51.792;10.938;2023-04-24T02:51:18;49.02;36.15;66.36;;
72160;Laerm;60045;51.792;10.938;2023-04-24T02:53:44;53.99;35.48;68.67;;
72160;Laerm;60045;51.792;10.938;2023-04-24T02:56:10;53.32;35.85;72.62;;
72160;Laerm;60045;51.792;10.938;2023-04-24T02:58:37;56.80;35.44;75.40;;
72160;Laerm;60045;51.792;10.938;2023-04-24T03:01:03;56.39;38.08;71.17;;
72160;Laerm;60045;51.792;10.938;2023-04-24T03:03:29;52.97;36.72;67.99;;
72160;Laerm;60045;51.792;10.938;2023-04-24T03:05:57;52.23;37.78;68.27;;
72160;Laerm;60045;51.792;10.938;2023-04-24T03:08:24;55.25;37.91;68.58;;
72160;Laerm;60045;51.792;10.938;2023-04-24T03:10:50;54.75;38.89;68.05;;
72160;Laerm;60045;51.792;10.938;2023-04-24T03:13:16;62.29;39.88;79.65;;
72160;Laerm;60045;51.792;10.938;2023-04-24T03:15:42;56.36;42.17;73.42;;
72160;Laerm;60045;51.792;10.938;2023-04-24T03:18:09;56.86;42.32;71.37;;
72160;Laerm;60045;51.792;10.938;2023-04-24T03:20:35;63.32;43.27;80.44;;
72160;Laerm;60045;51.792;10.938;2023-04-24T03:23:03;62.78;42.77;79.41;;
72160;Laerm;60045;51.792;10.938;2023-04-24T03:25:29;61.04;42.01;75.34;;
72160;Laerm;60045;51.792;10.938;2023-04-24T03:27:55;62.42;43.69;75.53;;
72160;Laerm;60045;51.792;10.938;2023-04-24T03:30:22;57.96;40.31;72.39;;
72160;Laerm;60045;51.792;10.938;2023-04-24T03:32:48;59.91;41.80;74.29;;
72160;Laerm;60045;51.792;10.938;2023-04-24T03:35:14;60.55;42.09;75.86;;
72160;Laerm;60045;51.792;10.938;2023-04-24T03:37:40;61.62;40.61;77.83;;
72160;Laerm;60045;51.792;10.938;2023-04-24T03:40:08;61.37;42.56;75.94;;
72160;Laerm;60045;51.792;10.938;2023-04-24T03:42:35;59.04;40.66;74.76;;
72160;Laerm;60045;51.792;10.938;2023-04-24T03:45:01;59.49;41.23;73.97;;
72160;Laerm;60045;51.792;10.938;2023-04-24T03:47:27;60.22;40.06;71.45;;
72160;Laerm;60045;51.792;10.938;2023-04-24T03:49:53;59.13;40.55;70.44;;
72160;Laerm;60045;51.792;10.938;2023-04-24T03:52:20;55.69;40.03;69.88;;
72160;Laerm;60045;51.792;10.938;2023-04-24T03:54:47;62.69;39.85;79.95;;
72160;Laerm;60045;51.792;10.938;2023-04-24T03:57:14;63.68;38.29;81.51;;
72160;Laerm;60045;51.792;10.938;2023-04-24T03:59:40;60.12;39.57;75.48;;
72160;Laerm;60045;51.792;10.938;2023-04-24T04:02:07;58.93;39.48;72.20;;
72160;Laerm;60045;51.792;10.938;2023-04-24T04:04:33;61.48;40.25;73.40;;
72160;Laerm;60045;51.792;10.938;2023-04-24T04:06:59;58.43;34.21;70.79;;
72160;Laerm;60045;51.792;10.938;2023-04-24T04:09:27;57.04;36.51;71.15;;
72160;Laerm;60045;51.792;10.938;2023-04-24T04:11:54;60.29;38.43;74.81;;
72160;Laerm;60045;51.792;10.938;2023-04-24T04:14:21;59.17;36.51;72.43;;
72160;Laerm;60045;51.792;10.938;2023-04-24T04:16:48;62.20;35.59;76.34;;
72160;Laerm;60045;51.792;10.938;2023-04-24T04:19:14;60.77;35.32;75.03;;
72160;Laerm;60045;51.792;10.938;2023-04-24T04:21:40;60.44;37.51;73.37;;
72160;Laerm;60045;51.792;10.938;2023-04-24T04:24:06;55.70;36.08;71.29;;
72160;Laerm;60045;51.792;10.938;2023-04-24T04:26:33;56.67;35.13;71.67;;
72160;Laerm;60045;51.792;10.938;2023-04-24T04:29:00;57.30;34.91;71.77;;
72160;Laerm;60045;51.792;10.938;2023-04-24T04:31:29;59.58;35.63;75.25;;
72160;Laerm;60045;51.792;10.938;2023-04-24T04:33:56;59.45;36.79;76.41;;
72160;Laerm;60045;51.792;10.938;2023-04-24T04:36:22;65.42;38.32;80.13;;
72160;Laerm;60045;51.792;10.938;2023-04-24T04:38:48;63.92;40.84;79.56;;
72160;Laerm;60045;51.792;10.938;2023-04-24T04:41:15;62.07;40.20;74.00;;
72160;Laerm;60045;51.792;10.938;2023-04-24T04:43:43;59.47;37.37;72.73;;
72160;Laerm;60045;51.792;10.938;2023-04-24T04:46:09;59.71;36.89;72.32;;
72160;Laerm;60045;51.792;10.938;2023-04-24T04:48:37;61.54;37.88;75.41;;
72160;Laerm;60045;51.792;10.938;2023-04-24T04:51:04;63.36;39.14;78.44;;
72160;Laerm;60045;51.792;10.938;2023-04-24T04:53:30;65.80;41.83;82.19;;
72160;Laerm;60045;51.792;10.938;2023-04-24T04:55:57;64.33;40.76;79.05;;
72160;Laerm;60045;51.792;10.938;2023-04-24T04:58:24;59.14;36.80;71.63;;
72160;Laerm;60045;51.792;10.938;2023-04-24T05:00:50;62.35;35.71;75.84;;
72160;Laerm;60045;51.792;10.938;2023-04-24T05:03:17;55.75;37.03;73.91;;
72160;Laerm;60045;51.792;10.938;2023-04-24T05:05:44;65.01;37.55;81.49;;
72160;Laerm;60045;51.792;10.938;2023-04-24T05:08:11;57.67;35.77;72.92;;
72160;Laerm;60045;51.792;10.938;2023-04-24T05:10:37;57.86;35.90;74.70;;
72160;Laerm;60045;51.792;10.938;2023-04-24T05:13:03;62.92;40.10;77.64;;
72160;Laerm;60045;51.792;10.938;2023-04-24T05:15:29;65.09;39.92;81.52;;
72160;Laerm;60045;51.792;10.938;2023-04-24T05:17:56;61.03;38.47;75.99;;
72160;Laerm;60045;51.792;10.938;2023-04-24T05:20:22;62.66;40.16;79.84;;
72160;Laerm;60045;51.792;10.938;2023-04-24T05:22:50;60.08;38.23;75.11;;
72160;Laerm;60045;51.792;10.938;2023-04-24T05:25:16;59.49;35.16;73.74;;
72160;Laerm;60045;51.792;10.938;2023-04-24T05:27:42;62.11;39.59;75.66;;
72160;Laerm;60045;51.792;10.938;2023-04-24T05:30:09;61.23;39.15;75.74;;
72160;Laerm;60045;51.792;10.938;2023-04-24T05:32:36;63.63;35.54;78.97;;
72160;Laerm;60045;51.792;10.938;2023-04-24T05:35:02;62.47;37.69;73.73;;
72160;Laerm;60045;51.792;10.938;2023-04-24T05:37:28;65.02;37.12;85.69;;
72160;Laerm;60045;51.792;10.938;2023-04-24T05:39:56;59.53;38.49;72.62;;
72160;Laerm;60045;51.792;10.938;2023-04-24T05:42:22;62.48;38.88;80.54;;
72160;Laerm;60045;51.792;10.938;2023-04-24T05:44:48;65.52;41.87;80.36;;
72160;Laerm;60045;51.792;10.938;2023-04-24T05:47:15;60.19;38.88;73.50;;
72160;Laerm;60045;51.792;10.938;2023-04-24T05:49:41;59.21;37.88;72.76;;
72160;Laerm;60045;51.792;10.938;2023-04-24T05:52:07;58.70;36.11;72.42;;
72160;Laerm;60045;51.792;10.938;2023-04-24T05:54:34;56.79;35.19;74.57;;
72160;Laerm;60045;51.792;10.938;2023-04-24T05:57:01;64.64;35.49;80.23;;
72160;Laerm;60045;51.792;10.938;2023-04-24T05:59:32;58.58;38.78;74.39;;
72160;Laerm;60045;51.792;10.938;2023-04-24T06:01:58;57.86;35.43;72.16;;
72160;Laerm;60045;51.792;10.938;2023-04-24T06:04:24;62.10;37.61;80.09;;
72160;Laerm;60045;51.792;10.938;2023-04-24T06:06:51;60.71;36.88;74.45;;
72160;Laerm;60045;51.792;10.938;2023-04-24T06:09:20;54.54;34.80;71.39;;
72160;Laerm;60045;51.792;10.938;2023-04-24T06:11:47;56.95;34.57;69.20;;
72160;Laerm;60045;51.792;10.938;2023-04-24T06:14:14;55.60;33.14;70.47;;
72160;Laerm;60045;51.792;10.938;2023-04-24T06:16:41;57.48;35.30;74.62;;
72160;Laerm;60045;51.792;10.938;2023-04-24T06:19:07;56.66;34.97;73.62;;
72160;Laerm;60045;51.792;10.938;2023-04-24T06:21:34;58.89;36.94;71.98;;
72160;Laerm;60045;51.792;10.938;2023-04-24T06:24:00;62.16;38.35;77.38;;
72160;Laerm;60045;51.792;10.938;2023-04-24T06:26:26;63.52;34.65;79.61;;
72160;Laerm;60045;51.792;10.938;2023-04-24T06:28:53;57.16;36.20;72.17;;
72160;Laerm;60045;51.792;10.938;2023-04-24T06:31:21;62.85;36.04;83.99;;
72160;Laerm;60045;51.792;10.938;2023-04-24T06:33:47;59.24;34.86;73.74;;
72160;Laerm;60045;51.792;10.938;2023-04-24T06:36:14;57.92;34.71;75.11;;
72160;Laerm;60045;51.792;10.938;2023-04-24T06:38:40;63.55;34.67;80.54;;
72160;Laerm;60045;51.792;10.938;2023-04-24T06:41:06;62.99;38.66;79.15;;
72160;Laerm;60045;51.792;10.938;2023-04-24T06:43:33;64.08;35.95;82.13;;
72160;Laerm;60045;51.792;10.938;2023-04-24T06:45:59;58.09;34.66;72.30;;
72160;Laerm;60045;51.792;10.938;2023-04-24T06:48:27;58.06;37.22;70.94;;
72160;Laerm;60045;51.792;10.938;2023-04-24T06:50:53;61.73;37.56;74.12;;
72160;Laerm;60045;51.792;10.938;2023-04-24T06:53:19;63.93;36.87;78.77;;
72160;Laerm;60045;51.792;10.938;2023-04-24T06:55:45;62.10;36.44;77.46;;
72160;Laerm;60045;51.792;10.938;2023-04-24T06:58:12;61.23;35.14;77.95;;
72160;Laerm;60045;51.792;10.938;2023-04-24T07:00:38;62.00;35.71;76.41;;
72160;Laerm;60045;51.792;10.938;2023-04-24T07:03:04;56.24;35.94;71.22;;
72160;Laerm;60045;51.792;10.938;2023-04-24T07:05:32;63.65;37.69;79.04;;
72160;Laerm;60045;51.792;10.938;2023-04-24T07:08:00;63.22;33.39;79.43;;
72160;Laerm;60045;51.792;10.938;2023-04-24T07:10:26;59.16;34.69;72.97;;
72160;Laerm;60045;51.792;10.938;2023-04-24T07:12:53;64.24;38.96;81.99;;
72160;Laerm;60045;51.792;10.938;2023-04-24T07:15:21;67.79;38.93;89.27;;
72160;Laerm;60045;51.792;10.938;2023-04-24T07:17:47;61.07;38.61;77.63;;
72160;Laerm;60045;51.792;10.938;2023-04-24T07:20:13;62.77;38.01;76.60;;
72160;Laerm;60045;51.792;10.938;2023-04-24T07:22:41;60.01;39.58;73.87;;
72160;Laerm;60045;51.792;10.938;2023-04-24T07:25:08;64.74;38.18;83.90;;
72160;Laerm;60045;51.792;10.938;2023-04-24T07:27:34;67.73;38.46;89.79;;
72160;Laerm;60045;51.792;10.938;2023-04-24T07:30:01;57.45;36.53;70.89;;
72160;Laerm;60045;51.792;10.938;2023-04-24T07:32:28;59.90;35.39;72.04;;
72160;Laerm;60045;51.792;10.938;2023-04-24T07:34:55;59.01;35.83;75.08;;
72160;Laerm;60045;51.792;10.938;2023-04-24T07:37:21;62.37;38.89;75.93;;
72160;Laerm;60045;51.792;10.938;2023-04-24T07:39:49;57.88;36.00;72.61;;
72160;Laerm;60045;51.792;10.938;2023-04-24T07:42:15;58.23;37.53;71.10;;
72160;Laerm;60045;51.792;10.938;2023-04-24T07:44:41;60.58;38.23;77.68;;
72160;Laerm;60045;51.792;10.938;2023-04-24T07:47:07;59.93;38.26;73.38;;
72160;Laerm;60045;51.792;10.938;2023-04-24T07:49:34;65.12;40.14;84.37;;
72160;Laerm;60045;51.792;10.938;2023-04-24T07:52:00;55.06;36.23;74.04;;
72160;Laerm;60045;51.792;10.938;2023-04-24T07:54:27;55.56;37.92;69.10;;
72160;Laerm;60045;51.792;10.938;2023-04-24T07:56:55;60.33;36.87;76.04;;
72160;Laerm;60045;51.792;10.938;2023-04-24T07:59:21;63.55;37.11;82.49;;
72160;Laerm;60045;51.792;10.938;2023-04-24T08:01:47;59.10;36.88;71.28;;
72160;Laerm;60045;51.792;10.938;2023-04-24T08:04:14;59.23;37.09;74.06;;
72160;Laerm;60045;51.792;10.938;2023-04-24T08:06:40;63.12;40.58;81.14;;
72160;Laerm;60045;51.792;10.938;2023-04-24T08:09:06;64.01;40.34;82.18;;
72160;Laerm;60045;51.792;10.938;2023-04-24T08:11:33;62.08;40.69;75.31;;
72160;Laerm;60045;51.792;10.938;2023-04-24T08:14:00;57.45;39.53;71.48;;
72160;Laerm;60045;51.792;10.938;2023-04-24T08:16:27;63.20;38.18;77.92;;
72160;Laerm;60045;51.792;10.938;2023-04-24T08:18:53;67.71;36.95;80.84;;
72160;Laerm;60045;51.792;10.938;2023-04-24T08:21:19;57.26;37.14;76.84;;
72160;Laerm;60045;51.792;10.938;2023-04-24T08:23:46;64.46;36.87;79.11;;
72160;Laerm;60045;51.792;10.938;2023-04-24T08:26:13;61.18;38.62;78.50;;
72160;Laerm;60045;51.792;10.938;2023-04-24T08:28:39;59.33;38.49;71.13;;
72160;Laerm;60045;51.792;10.938;2023-04-24T08:31:07;55.37;36.77;70.86;;
72160;Laerm;60045;51.792;10.938;2023-04-24T08:33:33;60.98;34.42;78.07;;
72160;Laerm;60045;51.792;10.938;2023-04-24T08:36:00;63.27;40.47;80.08;;
72160;Laerm;60045;51.792;10.938;2023-04-24T08:38:26;59.05;36.66;74.26;;
72160;Laerm;60045;51.792;10.938;2023-04-24T08:40:52;55.05;36.80;71.66;;
72160;Laerm;60045;51.792;10.938;2023-04-24T08:43:20;65.45;37.33;84.02;;
72160;Laerm;60045;51.792;10.938;2023-04-24T08:45:47;58.77;36.47;71.78;;
72160;Laerm;60045;51.792;10.938;2023-04-24T08:48:15;58.24;34.20;72.77;;
72160;Laerm;60045;51.792;10.938;2023-04-24T08:50:41;65.68;39.32;81.09;;
72160;Laerm;60045;51.792;10.938;2023-04-24T08:53:09;58.17;36.06;75.17;;
72160;Laerm;60045;51.792;10.938;2023-04-24T08:55:35;55.33;36.23;72.92;;
72160;Laerm;60045;51.792;10.938;2023-04-24T08:58:03;61.54;37.21;77.27;;
72160;Laerm;60045;51.792;10.938;2023-04-24T09:00:29;63.20;37.25;80.40;;
72160;Laerm;60045;51.792;10.938;2023-04-24T09:02:56;61.38;41.25;73.47;;
72160;Laerm;60045;51.792;10.938;2023-04-24T09:05:24;55.92;36.77;74.81;;
72160;Laerm;60045;51.792;10.938;2023-04-24T09:07:53;57.76;36.86;70.84;;
72160;Laerm;60045;51.792;10.938;2023-04-24T09:10:20;63.45;35.39;82.64;;
72160;Laerm;60045;51.792;10.938;2023-04-24T09:12:46;61.56;35.63;75.44;;
72160;Laerm;60045;51.792;10.938;2023-04-24T09:15:13;64.24;35.00;80.69;;
72160;Laerm;60045;51.792;10.938;2023-04-24T09:17:39;63.44;39.96;79.12;;
72160;Laerm;60045;51.792;10.938;2023-04-24T09:20:06;63.71;38.04;82.15;;
72160;Laerm;60045;51.792;10.938;2023-04-24T09:22:34;55.58;38.84;70.92;;
72160;Laerm;60045;51.792;10.938;2023-04-24T09:25:04;56.53;36.62;71.82;;
72160;Laerm;60045;51.792;10.938;2023-04-24T09:27:31;62.65;38.69;72.74;;
72160;Laerm;60045;51.792;10.938;2023-04-24T09:29:59;61.36;35.99;77.14;;
72160;Laerm;60045;51.792;10.938;2023-04-24T09:32:25;62.04;37.31;74.42;;
72160;Laerm;60045;51.792;10.938;2023-04-24T09:35:06;58.12;38.33;70.86;;
72160;Laerm;60045;51.792;10.938;2023-04-24T09:37:36;59.83;49.90;70.73;;
72160;Laerm;60045;51.792;10.938;2023-04-24T09:40:10;66.44;52.07;78.49;;
72160;Laerm;60045;51.792;10.938;2023-04-24T09:42:37;64.80;37.36;75.18;;
72160;Laerm;60045;51.792;10.938;2023-04-24T09:45:04;67.03;36.30;75.19;;
72160;Laerm;60045;51.792;10.938;2023-04-24T09:47:35;73.36;38.98;83.03;;
72160;Laerm;60045;51.792;10.938;2023-04-24T09:50:01;58.85;36.59;73.39;;
72160;Laerm;60045;51.792;10.938;2023-04-24T09:52:36;67.83;38.99;77.02;;
72160;Laerm;60045;51.792;10.938;2023-04-24T09:55:10;71.96;59.25;80.23;;
72160;Laerm;60045;51.792;10.938;2023-04-24T09:57:40;74.74;39.71;82.29;;
72160;Laerm;60045;51.792;10.938;2023-04-24T10:00:13;56.48;37.25;77.97;;
72160;Laerm;60045;51.792;10.938;2023-04-24T10:02:39;63.05;37.95;78.91;;
72160;Laerm;60045;51.792;10.938;2023-04-24T10:05:05;61.67;37.01;74.11;;
72160;Laerm;60045;51.792;10.938;2023-04-24T10:07:32;58.81;34.13;72.68;;
72160;Laerm;60045;51.792;10.938;2023-04-24T10:10:00;58.48;34.78;74.20;;
72160;Laerm;60045;51.792;10.938;2023-04-24T10:12:26;56.37;37.77;72.47;;
72160;Laerm;60045;51.792;10.938;2023-04-24T10:14:53;63.12;38.05;78.37;;
72160;Laerm;60045;51.792;10.938;2023-04-24T10:17:20;59.51;36.81;74.91;;
72160;Laerm;60045;51.792;10.938;2023-04-24T10:19:46;64.20;37.27;81.00;;
72160;Laerm;60045;51.792;10.938;2023-04-24T10:22:13;60.32;37.38;74.20;;
72160;Laerm;60045;51.792;10.938;2023-04-24T10:24:40;60.39;36.33;76.50;;
72160;Laerm;60045;51.792;10.938;2023-04-24T10:27:08;55.84;33.08;72.67;;
72160;Laerm;60045;51.792;10.938;2023-04-24T10:29:35;63.82;33.38;82.93;;
72160;Laerm;60045;51.792;10.938;2023-04-24T10:32:01;56.02;35.09;72.03;;
72160;Laerm;60045;51.792;10.938;2023-04-24T10:34:27;60.31;35.94;81.85;;
72160;Laerm;60045;51.792;10.938;2023-04-24T10:36:54;64.06;38.94;82.75;;
72160;Laerm;60045;51.792;10.938;2023-04-24T10:39:21;55.40;35.89;71.15;;
72160;Laerm;60045;51.792;10.938;2023-04-24T10:41:49;58.32;36.30;72.37;;
72160;Laerm;60045;51.792;10.938;2023-04-24T10:44:17;56.01;35.02;73.40;;
72160;Laerm;60045;51.792;10.938;2023-04-24T10:46:43;53.52;34.72;69.66;;
72160;Laerm;60045;51.792;10.938;2023-04-24T10:49:10;56.31;35.94;74.58;;
72160;Laerm;60045;51.792;10.938;2023-04-24T10:51:44;56.96;33.09;73.07;;
72160;Laerm;60045;51.792;10.938;2023-04-24T10:54:21;63.64;37.74;78.73;;
72160;Laerm;60045;51.792;10.938;2023-04-24T10:56:47;64.36;38.60;81.05;;
72160;Laerm;60045;51.792;10.938;2023-04-24T10:59:20;62.20;37.11;81.31;;
72160;Laerm;60045;51.792;10.938;2023-04-24T11:01:52;56.19;34.55;72.51;;
72160;Laerm;60045;51.792;10.938;2023-04-24T11:04:28;61.97;34.29;77.91;;
72160;Laerm;60045;51.792;10.938;2023-04-24T11:06:54;58.48;35.26;72.96;;
72160;Laerm;60045;51.792;10.938;2023-04-24T11:09:21;55.85;37.34;71.57;;
72160;Laerm;60045;51.792;10.938;2023-04-24T11:11:47;58.51;37.86;71.21;;
72160;Laerm;60045;51.792;10.938;2023-04-24T11:14:14;58.89;37.02;73.57;;
72160;Laerm;60045;51.792;10.938;2023-04-24T11:16:45;65.51;37.51;84.65;;
72160;Laerm;60045;51.792;10.938;2023-04-24T11:19:17;61.08;38.95;72.01;;
72160;Laerm;60045;51.792;10.938;2023-04-24T11:21:44;55.27;35.86;71.83;;
72160;Laerm;60045;51.792;10.938;2023-04-24T11:24:24;60.42;36.65;73.96;;
72160;Laerm;60045;51.792;10.938;2023-04-24T11:26:50;57.87;40.18;74.60;;
72160;Laerm;60045;51.792;10.938;2023-04-24T11:29:17;61.76;40.37;76.27;;
72160;Laerm;60045;51.792;10.938;2023-04-24T11:31:46;51.15;41.75;69.74;;
72160;Laerm;60045;51.792;10.938;2023-04-24T11:34:14;62.94;38.85;78.91;;
72160;Laerm;60045;51.792;10.938;2023-04-24T11:36:42;56.93;39.49;69.64;;
72160;Laerm;60045;51.792;10.938;2023-04-24T11:39:08;62.85;41.56;77.79;;
72160;Laerm;60045;51.792;10.938;2023-04-24T11:41:36;64.56;38.25;83.15;;
72160;Laerm;60045;51.792;10.938;2023-04-24T11:44:02;69.69;40.23;85.36;;
72160;Laerm;60045;51.792;10.938;2023-04-24T11:46:29;61.29;38.57;78.68;;
72160;Laerm;60045;51.792;10.938;2023-04-24T11:48:58;67.53;39.89;87.10;;
72160;Laerm;60045;51.792;10.938;2023-04-24T11:51:25;61.57;39.60;76.96;;
72160;Laerm;60045;51.792;10.938;2023-04-24T11:53:52;61.37;39.16;72.58;;
72160;Laerm;60045;51.792;10.938;2023-04-24T11:56:20;60.99;37.39;77.65;;
72160;Laerm;60045;51.792;10.938;2023-04-24T11:58:47;61.64;37.75;77.18;;
72160;Laerm;60045;51.792;10.938;2023-04-24T12:01:13;59.66;37.48;71.31;;
72160;Laerm;60045;51.792;10.938;2023-04-24T12:03:40;59.30;37.14;73.18;;
72160;Laerm;60045;51.792;10.938;2023-04-24T12:06:10;57.07;37.34;72.53;;
72160;Laerm;60045;51.792;10.938;2023-04-24T12:08:36;56.89;36.05;70.69;;
72160;Laerm;60045;51.792;10.938;2023-04-24T12:11:04;52.05;35.21;68.01;;
72160;Laerm;60045;51.792;10.938;2023-04-24T12:13:32;59.41;33.94;71.67;;
72160;Laerm;60045;51.792;10.938;2023-04-24T12:15:58;62.73;37.95;82.22;;
72160;Laerm;60045;51.792;10.938;2023-04-24T12:18:25;65.29;37.27;84.71;;
72160;Laerm;60045;51.792;10.938;2023-04-24T12:20:51;61.51;38.14;73.60;;
72160;Laerm;60045;51.792;10.938;2023-04-24T12:26:11;61.84;37.44;73.31;;
72160;Laerm;60045;51.792;10.938;2023-04-24T12:28:37;58.69;35.83;72.97;;
72160;Laerm;60045;51.792;10.938;2023-04-24T12:31:04;56.46;34.59;71.03;;
72160;Laerm;60045;51.792;10.938;2023-04-24T12:33:32;62.33;37.04;77.92;;
72160;Laerm;60045;51.792;10.938;2023-04-24T12:35:59;64.54;38.00;79.19;;
72160;Laerm;60045;51.792;10.938;2023-04-24T12:38:25;60.23;40.14;72.68;;
72160;Laerm;60045;51.792;10.938;2023-04-24T12:41:01;56.78;36.78;72.06;;
72160;Laerm;60045;51.792;10.938;2023-04-24T12:43:29;61.77;37.60;77.22;;
72160;Laerm;60045;51.792;10.938;2023-04-24T12:45:55;61.36;36.90;74.22;;
72160;Laerm;60045;51.792;10.938;2023-04-24T12:48:22;61.51;41.30;73.98;;
72160;Laerm;60045;51.792;10.938;2023-04-24T12:50:48;67.10;42.29;84.84;;
72160;Laerm;60045;51.792;10.938;2023-04-24T12:53:14;62.84;40.14;74.44;;
72160;Laerm;60045;51.792;10.938;2023-04-24T12:55:41;61.27;39.19;73.24;;
72160;Laerm;60045;51.792;10.938;2023-04-24T12:58:07;63.44;40.75;75.59;;
72160;Laerm;60045;51.792;10.938;2023-04-24T13:00:35;58.69;37.89;72.60;;
72160;Laerm;60045;51.792;10.938;2023-04-24T13:03:02;62.91;38.29;79.24;;
72160;Laerm;60045;51.792;10.938;2023-04-24T13:05:28;61.68;40.04;75.02;;
72160;Laerm;60045;51.792;10.938;2023-04-24T13:07:55;60.07;37.75;74.42;;
72160;Laerm;60045;51.792;10.938;2023-04-24T13:10:21;61.19;37.91;78.32;;
72160;Laerm;60045;51.792;10.938;2023-04-24T13:12:47;67.06;41.32;84.86;;
72160;Laerm;60045;51.792;10.938;2023-04-24T13:15:13;63.80;39.14;79.15;;
72160;Laerm;60045;51.792;10.938;2023-04-24T13:17:41;60.94;40.69;74.09;;
72160;Laerm;60045;51.792;10.938;2023-04-24T13:20:07;60.43;42.46;77.72;;
72160;Laerm;60045;51.792;10.938;2023-04-24T13:22:34;66.50;42.52;85.01;;
72160;Laerm;60045;51.792;10.938;2023-04-24T13:25:00;63.25;38.26;80.16;;
72160;Laerm;60045;51.792;10.938;2023-04-24T13:27:26;61.88;41.00;74.82;;
72160;Laerm;60045;51.792;10.938;2023-04-24T13:29:53;61.41;39.09;74.72;;
72160;Laerm;60045;51.792;10.938;2023-04-24T13:32:19;60.80;37.37;77.38;;